Terminal Aerodrome Forecast
Issued by NWS Tuscon, AZ

Home | Current Version | Previous Version | Text Only | Print | Product List | Glossary On
Versions: 1 2 3 4 5 6 7 8 9 10 11 12
000
FTUS45 KTWC 171720
TAFTUS
TAF
KTUS 171720Z 1718/1818 19005KT P6SM FEW150 FEW250
     FM172000 32008KT P6SM FEW150 SCT250
     FM180200 23005KT P6SM SCT140 BKN250
     FM180700 14007KT P6SM FEW140 BKN200=

USA.gov is the U.S. government's official web portal to all federal, state and local government web resources and services.